sensor_id;sensor_type;location;lat;lon;timestamp;pressure;altitude;pressure_sealevel;temperature;humidity
5883;BME280;2967;51.488;6.618;2022-08-21T00:04:38;101423.28;;;20.90;100.00
5883;BME280;2967;51.488;6.618;2022-08-21T00:09:57;101419.34;;;20.48;100.00
5883;BME280;2967;51.488;6.618;2022-08-21T00:15:01;101412.34;;;20.65;100.00
5883;BME280;2967;51.488;6.618;2022-08-21T00:20:08;101416.88;;;20.18;100.00
5883;BME280;2967;51.488;6.618;2022-08-21T00:25:12;101403.25;;;20.75;100.00
5883;BME280;2967;51.488;6.618;2022-08-21T00:30:18;101392.84;;;20.17;100.00
5883;BME280;2967;51.488;6.618;2022-08-21T00:35:27;101118.69;;;18.63;100.00
5883;BME280;2967;51.488;6.618;2022-08-21T00:40:34;101344.81;;;20.04;100.00
5883;BME280;2967;51.488;6.618;2022-08-21T00:45:39;101388.97;;;20.38;100.00
5883;BME280;2967;51.488;6.618;2022-08-21T00:50:44;101398.38;;;20.52;100.00
5883;BME280;2967;51.488;6.618;2022-08-21T00:55:49;101334.38;;;18.97;100.00
5883;BME280;2967;51.488;6.618;2022-08-21T01:00:59;101392.13;;;20.24;100.00
5883;BME280;2967;51.488;6.618;2022-08-21T01:06:09;101389.31;;;20.53;100.00
5883;BME280;2967;51.488;6.618;2022-08-21T01:11:11;101259.03;;;18.81;100.00
5883;BME280;2967;51.488;6.618;2022-08-21T01:16:18;101384.44;;;19.55;100.00
5883;BME280;2967;51.488;6.618;2022-08-21T01:21:26;101399.16;;;20.35;100.00
5883;BME280;2967;51.488;6.618;2022-08-21T01:26:30;101398.53;;;20.50;100.00
5883;BME280;2967;51.488;6.618;2022-08-21T01:31:36;101405.00;;;20.21;100.00
5883;BME280;2967;51.488;6.618;2022-08-21T01:36:40;101403.75;;;20.06;100.00
5883;BME280;2967;51.488;6.618;2022-08-21T01:41:43;101387.19;;;20.20;100.00
5883;BME280;2967;51.488;6.618;2022-08-21T01:46:46;101382.28;;;20.42;100.00
5883;BME280;2967;51.488;6.618;2022-08-21T01:51:50;101398.25;;;20.07;100.00
5883;BME280;2967;51.488;6.618;2022-08-21T01:56:54;101398.25;;;20.07;100.00
5883;BME280;2967;51.488;6.618;2022-08-21T02:01:57;101390.94;;;19.62;100.00
5883;BME280;2967;51.488;6.618;2022-08-21T02:07:01;101391.41;;;20.22;100.00
5883;BME280;2967;51.488;6.618;2022-08-21T02:12:09;101347.97;;;19.81;100.00
5883;BME280;2967;51.488;6.618;2022-08-21T02:17:12;101381.97;;;20.09;100.00
5883;BME280;2967;51.488;6.618;2022-08-21T02:22:16;101335.63;;;19.88;100.00
5883;BME280;2967;51.488;6.618;2022-08-21T02:27:19;101274.84;;;19.41;100.00
5883;BME280;2967;51.488;6.618;2022-08-21T02:32:27;101354.44;;;19.88;100.00
5883;BME280;2967;51.488;6.618;2022-08-21T02:37:31;101313.22;;;19.60;100.00
5883;BME280;2967;51.488;6.618;2022-08-21T02:42:34;101364.34;;;19.87;100.00
5883;BME280;2967;51.488;6.618;2022-08-21T02:47:38;101385.38;;;19.92;100.00
5883;BME280;2967;51.488;6.618;2022-08-21T02:52:45;101380.63;;;19.38;100.00
5883;BME280;2967;51.488;6.618;2022-08-21T02:57:52;101319.19;;;19.45;100.00
5883;BME280;2967;51.488;6.618;2022-08-21T03:02:56;101385.25;;;19.84;100.00
5883;BME280;2967;51.488;6.618;2022-08-21T03:08:02;101377.16;;;20.03;100.00
5883;BME280;2967;51.488;6.618;2022-08-21T03:13:05;101371.78;;;20.03;100.00
5883;BME280;2967;51.488;6.618;2022-08-21T03:18:10;101315.69;;;19.44;100.00
5883;BME280;2967;51.488;6.618;2022-08-21T03:23:17;101237.03;;;19.15;100.00
5883;BME280;2967;51.488;6.618;2022-08-21T03:28:21;101373.66;;;19.93;100.00
5883;BME280;2967;51.488;6.618;2022-08-21T03:33:25;101327.94;;;19.28;100.00
5883;BME280;2967;51.488;6.618;2022-08-21T03:38:31;101365.34;;;19.77;100.00
5883;BME280;2967;51.488;6.618;2022-08-21T03:43:34;101373.66;;;19.93;100.00
5883;BME280;2967;51.488;6.618;2022-08-21T03:48:39;101364.19;;;19.79;100.00
5883;BME280;2967;51.488;6.618;2022-08-21T03:53:44;101290.69;;;19.25;100.00
5883;BME280;2967;51.488;6.618;2022-08-21T03:58:47;101373.84;;;19.63;100.00
5883;BME280;2967;51.488;6.618;2022-08-21T04:03:50;101375.66;;;19.72;100.00
5883;BME280;2967;51.488;6.618;2022-08-21T04:08:53;101382.88;;;19.81;100.00
5883;BME280;2967;51.488;6.618;2022-08-21T04:13:57;101385.44;;;19.44;100.00
5883;BME280;2967;51.488;6.618;2022-08-21T04:18:59;101362.13;;;19.35;100.00
5883;BME280;2967;51.488;6.618;2022-08-21T04:24:05;101381.06;;;19.53;100.00
5883;BME280;2967;51.488;6.618;2022-08-21T04:29:08;101362.09;;;19.64;100.00
5883;BME280;2967;51.488;6.618;2022-08-21T04:34:11;101381.44;;;19.58;100.00
5883;BME280;2967;51.488;6.618;2022-08-21T04:39:16;101379.63;;;19.49;100.00
5883;BME280;2967;51.488;6.618;2022-08-21T04:44:19;101352.78;;;19.11;100.00
5883;BME280;2967;51.488;6.618;2022-08-21T04:49:22;101353.66;;;19.30;100.00
5883;BME280;2967;51.488;6.618;2022-08-21T04:54:26;101383.81;;;19.13;100.00
5883;BME280;2967;51.488;6.618;2022-08-21T04:59:32;101387.81;;;19.28;100.00
5883;BME280;2967;51.488;6.618;2022-08-21T05:04:41;101389.47;;;19.01;100.00
5883;BME280;2967;51.488;6.618;2022-08-21T05:09:46;101391.16;;;19.02;100.00
5883;BME280;2967;51.488;6.618;2022-08-21T05:14:49;101330.34;;;18.54;100.00
5883;BME280;2967;51.488;6.618;2022-08-21T05:19:51;101309.41;;;18.29;100.00
5883;BME280;2967;51.488;6.618;2022-08-21T05:24:56;101336.44;;;18.26;100.00
5883;BME280;2967;51.488;6.618;2022-08-21T05:30:00;101401.84;;;18.92;100.00
5883;BME280;2967;51.488;6.618;2022-08-21T05:35:04;101363.00;;;18.77;100.00
5883;BME280;2967;51.488;6.618;2022-08-21T05:40:10;101392.84;;;18.54;100.00
5883;BME280;2967;51.488;6.618;2022-08-21T05:45:25;101371.50;;;18.43;100.00
5883;BME280;2967;51.488;6.618;2022-08-21T05:50:46;101391.38;;;18.80;100.00
5883;BME280;2967;51.488;6.618;2022-08-21T05:55:54;101331.31;;;18.43;100.00
5883;BME280;2967;51.488;6.618;2022-08-21T06:00:57;101394.19;;;18.78;100.00
5883;BME280;2967;51.488;6.618;2022-08-21T06:06:01;101398.38;;;18.72;100.00
5883;BME280;2967;51.488;6.618;2022-08-21T06:11:07;101399.44;;;18.80;100.00
5883;BME280;2967;51.488;6.618;2022-08-21T06:16:12;101405.50;;;18.82;100.00
5883;BME280;2967;51.488;6.618;2022-08-21T06:21:16;101402.16;;;18.99;100.00
5883;BME280;2967;51.488;6.618;2022-08-21T06:26:20;101395.34;;;18.85;100.00
5883;BME280;2967;51.488;6.618;2022-08-21T06:31:26;101398.53;;;19.19;100.00
5883;BME280;2967;51.488;6.618;2022-08-21T06:36:29;101409.25;;;19.19;100.00
5883;BME280;2967;51.488;6.618;2022-08-21T06:41:33;101320.72;;;19.09;100.00
5883;BME280;2967;51.488;6.618;2022-08-21T06:46:39;101367.59;;;19.15;100.00
5883;BME280;2967;51.488;6.618;2022-08-21T06:51:45;101385.97;;;19.48;100.00
5883;BME280;2967;51.488;6.618;2022-08-21T06:56:49;101412.41;;;19.62;100.00
5883;BME280;2967;51.488;6.618;2022-08-21T07:01:52;101409.56;;;19.82;100.00
5883;BME280;2967;51.488;6.618;2022-08-21T07:06:54;101417.88;;;19.98;100.00
5883;BME280;2967;51.488;6.618;2022-08-21T07:11:59;101410.13;;;19.86;100.00
5883;BME280;2967;51.488;6.618;2022-08-21T07:17:02;101417.44;;;19.93;100.00
5883;BME280;2967;51.488;6.618;2022-08-21T07:22:05;101410.66;;;19.99;100.00
5883;BME280;2967;51.488;6.618;2022-08-21T07:27:13;101411.13;;;20.04;100.00
5883;BME280;2967;51.488;6.618;2022-08-21T07:32:19;101392.06;;;19.78;100.00
5883;BME280;2967;51.488;6.618;2022-08-21T07:37:23;101411.81;;;20.06;100.00
5883;BME280;2967;51.488;6.618;2022-08-21T07:42:27;101411.50;;;20.18;100.00
5883;BME280;2967;51.488;6.618;2022-08-21T07:47:31;101423.34;;;20.35;99.72
5883;BME280;2967;51.488;6.618;2022-08-21T07:52:46;101427.41;;;20.39;98.13
5883;BME280;2967;51.488;6.618;2022-08-21T07:57:51;101391.94;;;20.35;98.21
5883;BME280;2967;51.488;6.618;2022-08-21T08:02:55;101399.63;;;20.57;96.81
5883;BME280;2967;51.488;6.618;2022-08-21T08:08:04;101409.34;;;20.68;97.50
5883;BME280;2967;51.488;6.618;2022-08-21T08:13:09;101403.50;;;20.72;97.09
5883;BME280;2967;51.488;6.618;2022-08-21T08:18:12;101395.16;;;20.75;95.78
5883;BME280;2967;51.488;6.618;2022-08-21T08:23:15;101320.84;;;20.30;96.15
5883;BME280;2967;51.488;6.618;2022-08-21T08:28:19;101366.28;;;20.77;96.22
5883;BME280;2967;51.488;6.618;2022-08-21T08:33:25;101406.56;;;21.14;94.70
5883;BME280;2967;51.488;6.618;2022-08-21T08:38:29;101404.75;;;21.32;95.09
5883;BME280;2967;51.488;6.618;2022-08-21T08:43:37;101402.84;;;21.42;94.55
5883;BME280;2967;51.488;6.618;2022-08-21T08:48:45;101353.91;;;21.11;93.91
5883;BME280;2967;51.488;6.618;2022-08-21T08:53:58;101369.34;;;21.27;93.51
5883;BME280;2967;51.488;6.618;2022-08-21T08:59:08;101387.13;;;21.37;93.96
5883;BME280;2967;51.488;6.618;2022-08-21T09:04:20;101389.66;;;21.39;93.98
5883;BME280;2967;51.488;6.618;2022-08-21T09:09:32;101382.19;;;21.50;92.35
5883;BME280;2967;51.488;6.618;2022-08-21T09:14:48;101377.91;;;21.40;93.63
5883;BME280;2967;51.488;6.618;2022-08-21T09:20:08;101378.06;;;21.38;94.73
5883;BME280;2967;51.488;6.618;2022-08-21T09:25:20;101355.75;;;21.28;93.63
5883;BME280;2967;51.488;6.618;2022-08-21T09:30:28;101374.91;;;21.43;94.16
5883;BME280;2967;51.488;6.618;2022-08-21T09:35:32;101367.28;;;21.38;93.96
5883;BME280;2967;51.488;6.618;2022-08-21T09:40:41;101349.28;;;21.39;94.70
5883;BME280;2967;51.488;6.618;2022-08-21T09:45:47;101136.72;;;20.26;92.91
5883;BME280;2967;51.488;6.618;2022-08-21T09:50:52;101365.13;;;21.76;93.28
5883;BME280;2967;51.488;6.618;2022-08-21T09:55:57;101329.38;;;21.49;92.60
5883;BME280;2967;51.488;6.618;2022-08-21T10:01:25;101356.44;;;21.82;92.80
5883;BME280;2967;51.488;6.618;2022-08-21T10:06:28;101348.41;;;21.90;91.85
5883;BME280;2967;51.488;6.618;2022-08-21T10:11:32;101348.75;;;21.95;90.14
5883;BME280;2967;51.488;6.618;2022-08-21T10:16:43;101265.91;;;21.47;89.07
5883;BME280;2967;51.488;6.618;2022-08-21T10:21:59;101329.56;;;21.90;88.44
5883;BME280;2967;51.488;6.618;2022-08-21T10:27:12;101354.13;;;22.21;87.45
5883;BME280;2967;51.488;6.618;2022-08-21T10:32:33;101344.09;;;22.31;86.39
5883;BME280;2967;51.488;6.618;2022-08-21T10:37:56;101339.97;;;22.44;85.38
5883;BME280;2967;51.488;6.618;2022-08-21T10:43:15;101269.66;;;22.04;86.56
5883;BME280;2967;51.488;6.618;2022-08-21T10:48:29;101341.03;;;22.59;86.16
5883;BME280;2967;51.488;6.618;2022-08-21T10:53:51;101318.59;;;22.51;85.38
5883;BME280;2967;51.488;6.618;2022-08-21T10:59:20;101338.88;;;22.63;85.60
5883;BME280;2967;51.488;6.618;2022-08-21T11:04:32;101279.31;;;22.40;85.41
5883;BME280;2967;51.488;6.618;2022-08-21T11:09:51;101335.06;;;22.81;84.14
5883;BME280;2967;51.488;6.618;2022-08-21T11:15:00;101333.91;;;23.00;83.79
5883;BME280;2967;51.488;6.618;2022-08-21T11:20:12;101272.19;;;22.89;82.10
5883;BME280;2967;51.488;6.618;2022-08-21T11:25:21;101345.63;;;23.16;82.12
5883;BME280;2967;51.488;6.618;2022-08-21T11:30:38;101325.03;;;23.15;82.63
5883;BME280;2967;51.488;6.618;2022-08-21T11:35:48;101331.47;;;23.46;82.91
5883;BME280;2967;51.488;6.618;2022-08-21T11:41:05;101336.38;;;23.59;80.59
5883;BME280;2967;51.488;6.618;2022-08-21T11:46:20;101324.72;;;23.58;82.11
5883;BME280;2967;51.488;6.618;2022-08-21T11:51:33;101316.97;;;23.63;80.67
5883;BME280;2967;51.488;6.618;2022-08-21T11:56:42;101314.91;;;23.65;81.70
5883;BME280;2967;51.488;6.618;2022-08-21T12:01:49;101324.03;;;23.96;80.53
5883;BME280;2967;51.488;6.618;2022-08-21T12:06:55;101240.78;;;23.76;80.10
5883;BME280;2967;51.488;6.618;2022-08-21T12:12:04;101321.63;;;24.09;78.50
5883;BME280;2967;51.488;6.618;2022-08-21T12:17:09;101331.38;;;24.26;77.82
5883;BME280;2967;51.488;6.618;2022-08-21T12:22:36;101256.06;;;24.15;76.48
5883;BME280;2967;51.488;6.618;2022-08-21T12:27:47;101308.94;;;24.64;78.08
5883;BME280;2967;51.488;6.618;2022-08-21T12:32:56;101272.28;;;24.54;75.72
5883;BME280;2967;51.488;6.618;2022-08-21T12:38:07;101331.72;;;25.00;74.84
5883;BME280;2967;51.488;6.618;2022-08-21T12:43:15;101327.69;;;24.96;73.37
5883;BME280;2967;51.488;6.618;2022-08-21T12:48:23;101310.44;;;24.97;73.16
5883;BME280;2967;51.488;6.618;2022-08-21T12:53:32;101332.72;;;25.07;72.51
5883;BME280;2967;51.488;6.618;2022-08-21T12:58:35;101322.56;;;25.31;73.48
5883;BME280;2967;51.488;6.618;2022-08-21T13:03:40;101330.19;;;25.73;71.20
5883;BME280;2967;51.488;6.618;2022-08-21T13:08:46;101308.22;;;25.82;70.88
5883;BME280;2967;51.488;6.618;2022-08-21T13:13:51;101325.13;;;25.70;72.00
5883;BME280;2967;51.488;6.618;2022-08-21T13:18:57;101292.56;;;25.92;71.86
5883;BME280;2967;51.488;6.618;2022-08-21T13:24:17;101293.53;;;26.14;70.23
5883;BME280;2967;51.488;6.618;2022-08-21T13:29:39;101309.31;;;26.25;70.82
5883;BME280;2967;51.488;6.618;2022-08-21T13:34:51;101271.81;;;26.28;72.21
5883;BME280;2967;51.488;6.618;2022-08-21T13:39:56;101295.00;;;26.60;70.55
5883;BME280;2967;51.488;6.618;2022-08-21T13:45:00;101300.25;;;26.03;67.68
5883;BME280;2967;51.488;6.618;2022-08-21T13:50:04;101300.09;;;25.82;68.68
5883;BME280;2967;51.488;6.618;2022-08-21T13:55:16;101314.50;;;25.46;69.92
5883;BME280;2967;51.488;6.618;2022-08-21T14:00:27;101299.84;;;25.10;72.61
5883;BME280;2967;51.488;6.618;2022-08-21T14:05:32;101309.84;;;25.09;72.49
5883;BME280;2967;51.488;6.618;2022-08-21T14:10:42;101308.75;;;24.96;73.26
5883;BME280;2967;51.488;6.618;2022-08-21T14:15:54;101306.75;;;24.90;72.62
5883;BME280;2967;51.488;6.618;2022-08-21T14:21:05;101311.78;;;25.23;70.45
5883;BME280;2967;51.488;6.618;2022-08-21T14:26:10;101310.25;;;25.66;68.43
5883;BME280;2967;51.488;6.618;2022-08-21T14:31:15;101263.81;;;25.83;68.22
5883;BME280;2967;51.488;6.618;2022-08-21T14:36:20;101293.69;;;26.27;68.62
5883;BME280;2967;51.488;6.618;2022-08-21T14:41:25;101299.78;;;26.29;66.21
5883;BME280;2967;51.488;6.618;2022-08-21T14:46:34;101243.25;;;25.74;70.25
5883;BME280;2967;51.488;6.618;2022-08-21T14:51:57;101244.06;;;25.97;68.66
5883;BME280;2967;51.488;6.618;2022-08-21T14:57:05;101281.47;;;26.02;68.57
5883;BME280;2967;51.488;6.618;2022-08-21T15:02:12;101263.34;;;25.51;69.48
5883;BME280;2967;51.488;6.618;2022-08-21T15:07:16;101281.53;;;25.57;70.60
5883;BME280;2967;51.488;6.618;2022-08-21T15:12:20;101275.25;;;25.42;68.68
5883;BME280;2967;51.488;6.618;2022-08-21T15:17:23;101287.47;;;25.38;67.85
5883;BME280;2967;51.488;6.618;2022-08-21T15:22:26;101269.31;;;25.24;66.90
5883;BME280;2967;51.488;6.618;2022-08-21T15:27:31;101275.41;;;25.18;67.14
5883;BME280;2967;51.488;6.618;2022-08-21T15:32:33;101268.75;;;25.06;68.03
5883;BME280;2967;51.488;6.618;2022-08-21T15:37:36;101277.25;;;25.03;67.33
5883;BME280;2967;51.488;6.618;2022-08-21T15:42:42;101280.47;;;24.98;66.09
5883;BME280;2967;51.488;6.618;2022-08-21T15:47:45;101264.47;;;24.89;65.98
5883;BME280;2967;51.488;6.618;2022-08-21T15:52:49;101281.03;;;24.94;64.69
5883;BME280;2967;51.488;6.618;2022-08-21T15:57:57;101264.47;;;24.89;65.23
5883;BME280;2967;51.488;6.618;2022-08-21T16:03:08;101281.69;;;24.96;65.61
5883;BME280;2967;51.488;6.618;2022-08-21T16:08:13;101277.66;;;24.92;64.35
5883;BME280;2967;51.488;6.618;2022-08-21T16:13:20;101283.66;;;24.79;60.98
5883;BME280;2967;51.488;6.618;2022-08-21T16:18:26;101282.50;;;24.74;61.61
5883;BME280;2967;51.488;6.618;2022-08-21T16:23:29;101262.59;;;24.67;62.58
5883;BME280;2967;51.488;6.618;2022-08-21T16:28:35;101209.50;;;24.36;60.72
5883;BME280;2967;51.488;6.618;2022-08-21T16:33:42;101280.00;;;24.64;62.00
5883;BME280;2967;51.488;6.618;2022-08-21T16:38:45;101285.78;;;24.62;62.06
5883;BME280;2967;51.488;6.618;2022-08-21T16:43:50;101286.81;;;24.61;62.94
5883;BME280;2967;51.488;6.618;2022-08-21T16:48:54;101230.66;;;24.24;65.21
5883;BME280;2967;51.488;6.618;2022-08-21T16:53:57;101138.94;;;23.76;65.69
5883;BME280;2967;51.488;6.618;2022-08-21T16:59:03;101283.13;;;24.54;66.18
5883;BME280;2967;51.488;6.618;2022-08-21T17:04:06;101281.78;;;24.42;66.36
5883;BME280;2967;51.488;6.618;2022-08-21T17:09:09;101284.38;;;24.35;67.75
5883;BME280;2967;51.488;6.618;2022-08-21T17:14:16;101257.44;;;24.11;68.34
5883;BME280;2967;51.488;6.618;2022-08-21T17:19:21;101137.41;;;23.27;68.69
5883;BME280;2967;51.488;6.618;2022-08-21T17:24:24;101271.59;;;24.13;68.87
5883;BME280;2967;51.488;6.618;2022-08-21T17:29:32;101253.09;;;23.94;69.58
5883;BME280;2967;51.488;6.618;2022-08-21T17:34:39;101245.69;;;23.80;70.98
5883;BME280;2967;51.488;6.618;2022-08-21T17:39:42;101276.09;;;23.90;70.71
5883;BME280;2967;51.488;6.618;2022-08-21T17:44:46;101247.03;;;23.68;71.04
5883;BME280;2967;51.488;6.618;2022-08-21T17:49:49;101266.63;;;23.70;71.60
5883;BME280;2967;51.488;6.618;2022-08-21T17:54:52;101251.78;;;23.58;72.36
5883;BME280;2967;51.488;6.618;2022-08-21T17:59:57;101239.84;;;23.37;73.36
5883;BME280;2967;51.488;6.618;2022-08-21T18:05:25;101269.88;;;23.42;73.97
5883;BME280;2967;51.488;6.618;2022-08-21T18:10:31;101267.66;;;23.37;74.33
5883;BME280;2967;51.488;6.618;2022-08-21T18:15:38;101244.56;;;23.19;75.23
5883;BME280;2967;51.488;6.618;2022-08-21T18:20:43;101236.25;;;22.96;76.07
5883;BME280;2967;51.488;6.618;2022-08-21T18:25:54;101268.63;;;22.96;77.42
5883;BME280;2967;51.488;6.618;2022-08-21T18:30:59;101258.69;;;22.89;77.63
5883;BME280;2967;51.488;6.618;2022-08-21T18:36:03;101269.78;;;22.78;78.46
5883;BME280;2967;51.488;6.618;2022-08-21T18:41:06;101287.16;;;22.75;79.19
5883;BME280;2967;51.488;6.618;2022-08-21T18:46:13;101255.38;;;22.45;79.89
5883;BME280;2967;51.488;6.618;2022-08-21T18:51:16;101292.84;;;22.64;80.20
5883;BME280;2967;51.488;6.618;2022-08-21T18:56:19;101209.38;;;22.05;80.36
5883;BME280;2967;51.488;6.618;2022-08-21T19:01:27;101296.63;;;22.38;81.38
5883;BME280;2967;51.488;6.618;2022-08-21T19:06:31;101304.03;;;22.36;81.56
5883;BME280;2967;51.488;6.618;2022-08-21T19:11:40;101296.91;;;22.27;81.97
5883;BME280;2967;51.488;6.618;2022-08-21T19:16:46;101309.47;;;22.10;82.88
5883;BME280;2967;51.488;6.618;2022-08-21T19:21:52;101157.13;;;21.06;83.44
5883;BME280;2967;51.488;6.618;2022-08-21T19:27:19;101315.34;;;22.06;84.03
5883;BME280;2967;51.488;6.618;2022-08-21T19:32:29;101314.66;;;22.12;83.74
5883;BME280;2967;51.488;6.618;2022-08-21T19:37:35;101278.47;;;21.81;83.43
5883;BME280;2967;51.488;6.618;2022-08-21T19:42:39;101180.88;;;21.11;83.64
5883;BME280;2967;51.488;6.618;2022-08-21T19:47:47;101318.13;;;21.96;83.75
5883;BME280;2967;51.488;6.618;2022-08-21T19:52:51;101272.72;;;21.58;83.82
5883;BME280;2967;51.488;6.618;2022-08-21T19:57:57;101312.38;;;21.91;84.14
5883;BME280;2967;51.488;6.618;2022-08-21T20:03:03;101226.25;;;21.57;83.78
5883;BME280;2967;51.488;6.618;2022-08-21T20:08:08;101314.47;;;22.05;83.95
5883;BME280;2967;51.488;6.618;2022-08-21T20:13:21;101319.25;;;22.19;83.52
5883;BME280;2967;51.488;6.618;2022-08-21T20:18:26;101244.75;;;21.52;84.59
5883;BME280;2967;51.488;6.618;2022-08-21T20:23:32;101252.34;;;21.56;84.74
5883;BME280;2967;51.488;6.618;2022-08-21T20:28:36;101240.53;;;21.49;85.32
5883;BME280;2967;51.488;6.618;2022-08-21T20:34:00;101278.44;;;21.56;86.19
5883;BME280;2967;51.488;6.618;2022-08-21T20:39:04;101256.59;;;21.41;86.50
5883;BME280;2967;51.488;6.618;2022-08-21T20:44:12;101298.88;;;21.49;88.22
5883;BME280;2967;51.488;6.618;2022-08-21T20:49:20;101311.41;;;21.58;88.12
5883;BME280;2967;51.488;6.618;2022-08-21T20:54:30;101334.69;;;21.84;87.64
5883;BME280;2967;51.488;6.618;2022-08-21T20:59:42;101311.50;;;21.66;87.81
5883;BME280;2967;51.488;6.618;2022-08-21T21:04:54;101287.63;;;21.45;88.10
5883;BME280;2967;51.488;6.618;2022-08-21T21:10:02;101338.19;;;21.59;89.14
5883;BME280;2967;51.488;6.618;2022-08-21T21:15:10;101336.72;;;21.82;88.28
5883;BME280;2967;51.488;6.618;2022-08-21T21:20:21;101331.19;;;21.83;88.28
5883;BME280;2967;51.488;6.618;2022-08-21T21:25:32;101325.72;;;21.75;88.91
5883;BME280;2967;51.488;6.618;2022-08-21T21:30:45;101258.91;;;21.11;90.30
5883;BME280;2967;51.488;6.618;2022-08-21T21:36:07;101319.00;;;21.79;89.37
5883;BME280;2967;51.488;6.618;2022-08-21T21:41:25;101323.19;;;21.57;90.07
5883;BME280;2967;51.488;6.618;2022-08-21T21:46:32;101316.91;;;21.66;89.96
5883;BME280;2967;51.488;6.618;2022-08-21T21:51:50;101291.25;;;21.36;90.92
5883;BME280;2967;51.488;6.618;2022-08-21T21:57:06;101232.50;;;20.62;92.79
5883;BME280;2967;51.488;6.618;2022-08-21T22:02:23;101331.31;;;21.22;93.32
5883;BME280;2967;51.488;6.618;2022-08-21T22:07:37;101283.94;;;20.94;93.18
5883;BME280;2967;51.488;6.618;2022-08-21T22:12:49;101023.81;;;19.29;94.94
5883;BME280;2967;51.488;6.618;2022-08-21T22:18:19;101336.06;;;21.45;93.65
5883;BME280;2967;51.488;6.618;2022-08-21T22:23:29;101345.97;;;21.45;94.68
5883;BME280;2967;51.488;6.618;2022-08-21T22:28:36;101253.75;;;21.00;94.17
5883;BME280;2967;51.488;6.618;2022-08-21T22:34:00;101316.75;;;21.50;93.88
5883;BME280;2967;51.488;6.618;2022-08-21T22:39:10;101291.84;;;21.30;93.77
5883;BME280;2967;51.488;6.618;2022-08-21T22:44:24;101254.13;;;21.05;93.78
5883;BME280;2967;51.488;6.618;2022-08-21T22:49:48;101196.22;;;20.31;94.70
5883;BME280;2967;51.488;6.618;2022-08-21T22:54:57;101093.69;;;19.64;95.04
5883;BME280;2967;51.488;6.618;2022-08-21T23:00:07;101338.28;;;21.15;95.09
5883;BME280;2967;51.488;6.618;2022-08-21T23:05:21;101333.09;;;21.31;94.61
5883;BME280;2967;51.488;6.618;2022-08-21T23:10:28;101231.88;;;20.68;94.83
5883;BME280;2967;51.488;6.618;2022-08-21T23:15:35;101320.91;;;20.92;96.62
5883;BME280;2967;51.488;6.618;2022-08-21T23:20:47;101315.59;;;20.28;100.00
5883;BME280;2967;51.488;6.618;2022-08-21T23:26:18;101326.44;;;20.63;99.73
5883;BME280;2967;51.488;6.618;2022-08-21T23:31:27;101326.75;;;21.05;97.58
5883;BME280;2967;51.488;6.618;2022-08-21T23:36:42;101232.75;;;20.24;98.84
5883;BME280;2967;51.488;6.618;2022-08-21T23:42:21;101327.84;;;21.12;97.87
5883;BME280;2967;51.488;6.618;2022-08-21T23:47:35;101259.31;;;20.71;98.72
5883;BME280;2967;51.488;6.618;2022-08-21T23:52:51;101298.75;;;20.80;98.87
5883;BME280;2967;51.488;6.618;2022-08-21T23:58:14;101217.97;;;20.37;98.87
